createdAt,value
2017-12-27T00:05:26.500Z,93947.28
2017-12-27T00:08:00.932Z,93939.59
2017-12-27T00:10:35.337Z,93932.33
2017-12-27T00:13:15.337Z,93932.98
2017-12-27T00:18:59.140Z,93923.83
2017-12-27T00:21:34.038Z,93923.09
2017-12-27T00:24:11.554Z,93916.84
2017-12-27T00:26:46.101Z,93905.59
2017-12-27T00:29:20.535Z,93899.64
2017-12-27T00:31:56.345Z,93893.49
2017-12-27T00:34:26.289Z,93886.86
2017-12-27T00:37:04.610Z,93881.50
2017-12-27T00:39:33.621Z,93868.93
2017-12-27T00:44:39.668Z,93851.04
2017-12-27T00:47:08.701Z,93842.41
2017-12-27T00:52:14.489Z,93833.27
2017-12-27T00:57:21.718Z,93820.00
2017-12-27T00:59:50.952Z,93813.86
2017-12-27T01:02:19.986Z,93813.02
2017-12-27T01:04:52.223Z,93815.72
2017-12-27T01:07:21.264Z,93804.24
2017-12-27T01:09:58.825Z,93800.00
2017-12-27T01:12:27.869Z,93793.75
2017-12-27T01:15:00.753Z,93788.09
2017-12-27T01:17:29.793Z,93793.23
2017-12-27T01:20:03.690Z,93780.86
2017-12-27T01:22:32.756Z,93776.16
2017-12-27T01:30:12.775Z,93778.44
2017-12-27T01:32:41.809Z,93770.37
2017-12-27T01:35:11.801Z,93766.18
2017-12-27T01:37:40.838Z,93753.98
2017-12-27T01:40:13.389Z,93751.17
2017-12-27T01:42:42.426Z,93741.99
2017-12-27T01:45:15.198Z,93728.73
2017-12-27T01:47:44.264Z,93725.42
2017-12-27T01:50:15.449Z,93716.56
2017-12-27T01:52:44.512Z,93714.07
2017-12-27T01:55:16.797Z,93710.75
2017-12-27T01:57:45.845Z,93706.11
2017-12-27T02:00:14.886Z,93700.44
2017-12-27T02:02:43.934Z,93694.14
2017-12-27T02:05:13.899Z,93688.25
2017-12-27T02:07:42.948Z,93687.00
2017-12-27T02:10:13.026Z,93669.56
2017-12-27T02:12:42.089Z,93660.23
2017-12-27T02:15:22.406Z,93649.17
2017-12-27T02:17:51.433Z,93643.58
2017-12-27T02:25:37.947Z,93623.71
2017-12-27T02:28:08.872Z,93616.27
2017-12-27T02:30:38.890Z,93611.41
2017-12-27T02:33:11.478Z,93607.28
2017-12-27T02:35:40.713Z,93607.83
2017-12-27T02:38:09.754Z,93596.97
2017-12-27T02:40:38.802Z,93590.27
2017-12-27T02:43:11.637Z,93579.35
2017-12-27T02:45:40.701Z,93578.23
2017-12-27T02:48:09.736Z,93579.62
2017-12-27T02:50:38.769Z,93569.59
2017-12-27T02:53:11.212Z,93564.52
2017-12-27T02:55:40.265Z,93563.02
2017-12-27T02:58:10.229Z,93552.46
2017-12-27T03:00:39.282Z,93545.52
2017-12-27T03:03:08.467Z,93543.03
2017-12-27T03:08:15.085Z,93527.41
2017-12-27T03:10:46.171Z,93529.20
2017-12-27T03:13:15.225Z,93522.52
2017-12-27T03:15:52.067Z,93508.03
2017-12-27T03:18:21.127Z,93500.47
2017-12-27T03:23:27.867Z,93478.05
2017-12-27T03:26:01.558Z,93470.02
2017-12-27T03:28:42.621Z,93474.14
2017-12-27T03:31:11.720Z,93463.33
2017-12-27T03:33:40.765Z,93454.34
2017-12-27T03:36:09.805Z,93446.16
2017-12-27T03:38:38.865Z,93436.64
2017-12-27T03:41:08.053Z,93437.64
2017-12-27T03:43:38.077Z,93424.14
2017-12-27T03:46:07.079Z,93421.79
2017-12-27T03:48:39.218Z,93415.46
2017-12-27T03:51:08.275Z,93407.85
2017-12-27T03:53:37.321Z,93403.91
2017-12-27T03:56:06.353Z,93399.12
2017-12-27T03:58:35.405Z,93393.69
2017-12-27T04:01:04.462Z,93385.42
2017-12-27T04:06:08.838Z,93372.87
2017-12-27T04:08:53.242Z,93364.28
2017-12-27T04:11:22.288Z,93362.75
2017-12-27T04:13:51.333Z,93350.53
2017-12-27T04:16:20.381Z,93343.85
2017-12-27T04:18:49.430Z,93340.17
2017-12-27T04:21:18.485Z,93330.13
2017-12-27T04:26:23.799Z,93325.34
2017-12-27T04:28:52.845Z,93323.24
2017-12-27T04:31:21.944Z,93312.10
2017-12-27T04:33:51.008Z,93296.94
2017-12-27T04:36:20.037Z,93294.41
2017-12-27T04:38:50.058Z,93292.50
2017-12-27T04:41:19.110Z,93289.08
2017-12-27T04:43:50.125Z,93272.53
2017-12-27T04:46:19.158Z,93271.37
2017-12-27T04:48:57.617Z,93254.38
2017-12-27T04:51:26.731Z,93259.07
2017-12-27T04:56:30.969Z,93251.53
2017-12-27T04:59:01.911Z,93241.25
2017-12-27T05:01:30.945Z,93236.94
2017-12-27T05:06:37.716Z,93194.66
2017-12-27T05:09:08.743Z,93194.53
2017-12-27T05:11:37.781Z,93190.53
2017-12-27T05:14:06.829Z,93186.12
2017-12-27T05:16:35.877Z,93181.91
2017-12-27T05:21:41.645Z,93177.84
2017-12-27T05:24:16.519Z,93164.09
2017-12-27T05:26:46.469Z,93154.31
2017-12-27T05:29:15.512Z,93156.36
2017-12-27T05:31:46.501Z,93149.41
2017-12-27T05:34:15.573Z,93156.00
2017-12-27T05:36:45.529Z,93142.80
2017-12-27T05:39:16.557Z,93143.33
2017-12-27T05:41:45.709Z,93150.89
2017-12-27T05:46:54.385Z,93131.86
2017-12-27T05:49:24.348Z,93122.83
2017-12-27T05:52:07.905Z,93123.25
2017-12-27T05:54:36.945Z,93122.17
2017-12-27T05:57:09.534Z,93108.35
2017-12-27T05:59:38.602Z,93108.71
2017-12-27T06:02:07.671Z,93105.30
2017-12-27T06:04:36.706Z,93098.00
2017-12-27T06:07:05.750Z,93095.48
2017-12-27T06:09:34.795Z,93081.78
2017-12-27T06:12:03.857Z,93079.59
2017-12-27T06:14:32.898Z,93071.01
2017-12-27T06:17:01.934Z,93062.07
2017-12-27T06:19:30.969Z,93053.20
2017-12-27T06:22:00.066Z,93051.59
2017-12-27T06:24:29.112Z,93058.28
2017-12-27T06:29:34.402Z,93042.77
2017-12-27T06:32:03.861Z,93044.08
2017-12-27T06:34:33.881Z,93038.92
2017-12-27T06:37:02.933Z,93036.58
2017-12-27T06:39:32.900Z,93021.86
2017-12-27T06:42:01.964Z,93033.12
2017-12-27T06:44:31.057Z,93033.38
2017-12-27T06:47:00.099Z,93020.33
2017-12-27T06:49:29.147Z,93016.81
2017-12-27T06:51:58.203Z,93015.69
2017-12-27T06:54:27.233Z,93014.95
2017-12-27T06:56:56.282Z,93005.09
2017-12-27T07:02:00.697Z,93010.50
2017-12-27T07:04:29.726Z,93000.23
2017-12-27T07:06:58.765Z,92997.13
2017-12-27T07:09:29.773Z,92998.77
2017-12-27T07:11:58.813Z,93000.05
2017-12-27T07:14:31.599Z,93001.16
2017-12-27T07:17:00.638Z,93000.93
2017-12-27T07:19:29.684Z,92995.84
2017-12-27T07:21:58.725Z,92991.73
2017-12-27T07:24:27.782Z,92992.41
2017-12-27T07:26:56.840Z,92981.04
2017-12-27T07:29:25.905Z,92983.98
2017-12-27T07:31:55.978Z,92989.02
2017-12-27T07:34:25.030Z,92988.83
2017-12-27T07:37:07.853Z,92986.81
2017-12-27T07:39:36.980Z,92985.75
2017-12-27T07:42:07.109Z,92982.05
2017-12-27T07:44:36.140Z,92980.80
2017-12-27T07:47:07.085Z,92985.14
2017-12-27T07:49:38.091Z,92983.98
2017-12-27T07:52:08.429Z,92981.55
2017-12-27T07:54:38.437Z,92982.89
2017-12-27T07:57:07.469Z,92979.97
2017-12-27T07:59:36.519Z,92974.98
2017-12-27T08:02:06.475Z,92970.98
2017-12-27T08:04:38.850Z,92981.39
2017-12-27T08:07:07.877Z,92978.79
2017-12-27T08:09:38.909Z,92965.86
2017-12-27T08:12:08.926Z,92988.16
2017-12-27T08:14:38.905Z,92956.97
2017-12-27T08:17:07.957Z,92970.33
2017-12-27T08:19:37.014Z,92967.70
2017-12-27T08:22:06.960Z,92973.05
2017-12-27T08:24:41.347Z,92969.23
2017-12-27T08:27:10.405Z,92939.73
2017-12-27T08:29:47.168Z,92954.42
2017-12-27T08:32:16.210Z,92949.86
2017-12-27T08:37:21.427Z,92944.52
2017-12-27T08:39:50.470Z,92943.68
2017-12-27T08:42:19.507Z,92951.00
2017-12-27T08:44:48.596Z,92941.31
2017-12-27T08:47:17.621Z,92938.77
2017-12-27T08:49:48.598Z,92944.75
2017-12-27T08:52:17.630Z,92938.70
2017-12-27T08:54:47.725Z,92943.73
2017-12-27T08:57:16.778Z,92938.25
2017-12-27T08:59:49.655Z,92922.05
2017-12-27T09:02:18.986Z,92931.73
2017-12-27T09:04:48.045Z,92942.95
2017-12-27T09:07:17.092Z,92930.12
2017-12-27T09:09:48.079Z,92926.44
2017-12-27T09:12:17.130Z,92932.23
2017-12-27T09:14:46.170Z,92923.08
2017-12-27T09:17:15.213Z,92914.64
2017-12-27T09:19:45.184Z,92922.16
2017-12-27T09:22:14.265Z,92916.56
2017-12-27T09:24:43.299Z,92922.54
2017-12-27T09:27:12.333Z,92915.58
2017-12-27T09:29:42.297Z,92898.70
2017-12-27T09:32:11.335Z,92901.44
2017-12-27T09:34:40.424Z,92924.79
2017-12-27T09:37:09.453Z,92913.14
2017-12-27T09:39:41.893Z,92917.13
2017-12-27T09:42:10.950Z,92908.89
2017-12-27T09:44:39.994Z,92902.91
2017-12-27T09:47:09.036Z,92899.85
2017-12-27T09:49:38.094Z,92906.14
2017-12-27T09:52:07.264Z,92904.29
2017-12-27T09:57:11.552Z,92911.89
2017-12-27T09:59:40.580Z,92914.02
2017-12-27T10:02:15.144Z,92905.84
2017-12-27T10:04:44.198Z,92897.05
2017-12-27T10:07:14.242Z,92900.80
2017-12-27T10:09:43.312Z,92898.22
2017-12-27T10:12:12.442Z,92903.97
2017-12-27T10:14:41.525Z,92918.75
2017-12-27T10:17:10.553Z,92890.92
2017-12-27T10:19:41.591Z,92919.77
2017-12-27T10:22:10.629Z,92898.94
2017-12-27T10:24:41.628Z,92906.51
2017-12-27T10:27:10.657Z,92896.83
2017-12-27T10:29:40.633Z,92885.10
2017-12-27T10:32:09.666Z,92876.55
2017-12-27T10:34:39.660Z,92878.45
2017-12-27T10:37:08.694Z,92857.08
2017-12-27T10:39:40.818Z,92870.95
2017-12-27T10:42:09.904Z,92864.64
2017-12-27T10:44:43.581Z,92865.09
2017-12-27T10:47:12.577Z,92850.83
2017-12-27T10:49:41.620Z,92852.50
2017-12-27T10:52:10.648Z,92846.66
2017-12-27T10:54:39.693Z,92837.06
2017-12-27T10:57:08.733Z,92831.13
2017-12-27T10:59:39.778Z,92839.22
2017-12-27T11:02:08.818Z,92825.73
2017-12-27T11:04:42.576Z,92818.56
2017-12-27T11:07:11.704Z,92819.84
2017-12-27T11:09:40.737Z,92811.98
2017-12-27T11:12:09.771Z,92815.97
2017-12-27T11:17:15.053Z,92790.13
2017-12-27T11:19:45.066Z,92788.98
2017-12-27T11:22:14.100Z,92790.56
2017-12-27T11:24:43.146Z,92795.70
2017-12-27T11:27:12.169Z,92793.72
2017-12-27T11:29:44.422Z,92809.32
2017-12-27T11:32:13.465Z,92825.45
2017-12-27T11:34:43.445Z,92802.13
2017-12-27T11:37:12.540Z,92783.25
2017-12-27T11:39:42.565Z,92768.40
2017-12-27T11:42:11.612Z,92762.28
2017-12-27T11:44:41.693Z,92756.03
2017-12-27T11:47:10.746Z,92756.16
2017-12-27T11:49:40.690Z,92748.29
2017-12-27T11:54:44.973Z,92739.06
2017-12-27T11:57:14.026Z,92736.59
2017-12-27T11:59:43.069Z,92733.33
2017-12-27T12:02:12.274Z,92734.26
2017-12-27T12:04:42.221Z,92738.55
2017-12-27T12:07:11.252Z,92738.01
2017-12-27T12:09:40.353Z,92728.59
2017-12-27T12:12:09.393Z,92727.77
2017-12-27T12:14:41.617Z,92710.58
2017-12-27T12:17:10.655Z,92709.41
2017-12-27T12:19:40.646Z,92702.40
2017-12-27T12:22:09.722Z,92709.28
2017-12-27T12:24:38.753Z,92698.43
2017-12-27T12:27:07.830Z,92698.56
2017-12-27T12:29:36.844Z,92693.23
2017-12-27T12:32:05.885Z,92684.34
2017-12-27T12:34:34.941Z,92677.95
2017-12-27T12:37:04.955Z,92673.11
2017-12-27T12:39:36.005Z,92668.18
2017-12-27T12:42:05.040Z,92669.09
2017-12-27T12:47:09.294Z,92658.38
2017-12-27T12:49:40.409Z,92645.67
2017-12-27T12:52:09.486Z,92653.09
2017-12-27T12:54:40.522Z,92655.95
2017-12-27T12:57:09.589Z,92656.42
2017-12-27T12:59:39.541Z,92657.36
2017-12-27T13:02:08.615Z,92670.80
2017-12-27T13:04:37.700Z,92655.86
2017-12-27T13:07:08.189Z,92654.67
2017-12-27T13:09:39.221Z,92643.60
2017-12-27T13:12:08.256Z,92651.84
2017-12-27T13:14:41.297Z,92645.69
2017-12-27T13:17:10.337Z,92634.93
2017-12-27T13:22:14.602Z,92617.88
2017-12-27T13:24:43.662Z,92615.73
2017-12-27T13:27:12.695Z,92603.00
2017-12-27T13:29:41.772Z,92615.91
2017-12-27T13:32:10.813Z,92628.06
2017-12-27T13:34:39.841Z,92626.12
2017-12-27T13:37:08.914Z,92624.99
2017-12-27T13:39:37.949Z,92623.15
2017-12-27T13:42:07.074Z,92620.86
2017-12-27T13:44:38.070Z,92615.83
2017-12-27T13:47:07.114Z,92611.65
2017-12-27T13:49:36.193Z,92597.42
2017-12-27T13:52:07.175Z,92604.64
2017-12-27T13:54:36.207Z,92606.67
2017-12-27T13:59:40.513Z,92593.72
2017-12-27T14:02:11.489Z,92595.08
2017-12-27T14:04:40.529Z,92594.50
2017-12-27T14:07:13.278Z,92597.11
2017-12-27T14:09:42.342Z,92601.88
2017-12-27T14:12:12.336Z,92603.20
2017-12-27T14:14:41.417Z,92602.01
2017-12-27T14:17:10.454Z,92601.13
2017-12-27T14:19:39.497Z,92601.98
2017-12-27T14:24:43.764Z,92609.38
2017-12-27T14:27:14.771Z,92601.98
2017-12-27T14:29:43.821Z,92600.46
2017-12-27T14:32:12.870Z,92604.32
2017-12-27T14:34:42.977Z,92606.34
2017-12-27T14:37:12.049Z,92607.84
2017-12-27T14:39:41.073Z,92604.98
2017-12-27T14:42:10.209Z,92608.90
2017-12-27T14:44:39.283Z,92614.83
2017-12-27T14:49:44.557Z,92640.49
2017-12-27T14:52:14.605Z,92641.05
2017-12-27T14:54:43.655Z,92640.41
2017-12-27T14:57:12.689Z,92645.79
2017-12-27T14:59:41.723Z,92654.11
2017-12-27T15:02:12.754Z,92656.31
2017-12-27T15:04:41.791Z,92661.52
2017-12-27T15:07:10.835Z,92659.92
2017-12-27T15:09:39.878Z,92664.70
2017-12-27T15:12:08.933Z,92668.51
2017-12-27T15:14:38.024Z,92667.78
2017-12-27T15:19:44.469Z,92661.75
2017-12-27T15:22:13.514Z,92669.70
2017-12-27T15:24:42.546Z,92667.80
2017-12-27T15:27:11.594Z,92675.15
2017-12-27T15:29:40.634Z,92677.05
2017-12-27T15:32:11.827Z,92670.13
2017-12-27T15:34:40.865Z,92680.48
2017-12-27T15:39:45.101Z,92675.42
2017-12-27T15:42:15.207Z,92667.53
2017-12-27T15:44:44.267Z,92654.60
2017-12-27T15:47:13.338Z,92656.61
2017-12-27T15:49:42.376Z,92656.62
2017-12-27T15:52:11.430Z,92661.27
2017-12-27T15:54:42.430Z,92654.34
2017-12-27T15:57:11.481Z,92650.38
2017-12-27T15:59:40.572Z,92647.48
2017-12-27T16:02:11.582Z,92648.31
2017-12-27T16:04:41.625Z,92661.28
2017-12-27T16:07:11.642Z,92667.98
2017-12-27T16:09:44.449Z,92672.20
2017-12-27T16:12:13.585Z,92672.52
2017-12-27T16:14:43.519Z,92674.41
2017-12-27T16:17:16.096Z,92683.02
2017-12-27T16:22:27.557Z,92689.04
2017-12-27T16:24:56.603Z,92682.61
2017-12-27T16:27:25.698Z,92686.16
2017-12-27T16:29:54.804Z,92686.49
2017-12-27T16:32:24.825Z,92692.91
2017-12-27T16:34:53.926Z,92694.30
2017-12-27T16:37:22.982Z,92695.69
2017-12-27T16:39:52.026Z,92701.31
2017-12-27T16:44:56.297Z,92703.38
2017-12-27T16:47:25.361Z,92702.48
2017-12-27T16:49:54.413Z,92703.70
2017-12-27T16:52:24.368Z,92697.84
2017-12-27T16:54:53.438Z,92694.66
2017-12-27T16:57:22.480Z,92696.52
2017-12-27T16:59:51.529Z,92691.22
2017-12-27T17:02:20.603Z,92688.78
2017-12-27T17:04:50.540Z,92691.64
2017-12-27T17:07:19.579Z,92692.56
2017-12-27T17:12:23.851Z,92692.04
2017-12-27T17:14:52.881Z,92686.38
2017-12-27T17:17:31.666Z,92686.66
2017-12-27T17:20:00.702Z,92687.52
2017-12-27T17:22:30.818Z,92688.98
2017-12-27T17:24:59.849Z,92685.87
2017-12-27T17:27:28.891Z,92685.36
2017-12-27T17:29:57.930Z,92684.74
2017-12-27T17:32:27.006Z,92685.78
2017-12-27T17:34:57.038Z,92696.10
2017-12-27T17:37:26.109Z,92697.81
2017-12-27T17:42:30.347Z,92701.09
2017-12-27T17:44:59.380Z,92700.01
2017-12-27T17:47:28.440Z,92697.88
2017-12-27T17:49:57.487Z,92695.59
2017-12-27T17:52:26.520Z,92697.27
2017-12-27T17:54:55.829Z,92698.63
2017-12-27T17:57:25.796Z,92701.88
2017-12-27T17:59:59.346Z,92707.02
2017-12-27T18:02:28.393Z,92707.63
2017-12-27T18:04:57.440Z,92712.85
2017-12-27T18:07:26.489Z,92703.98
2017-12-27T18:09:55.533Z,92707.27
2017-12-27T18:15:00.818Z,92712.91
2017-12-27T18:17:29.840Z,92706.95
2017-12-27T18:19:58.878Z,92713.08
2017-12-27T18:22:27.909Z,92711.02
2017-12-27T18:25:06.822Z,92717.61
2017-12-27T18:27:35.881Z,92724.45
2017-12-27T18:30:05.994Z,92718.61
2017-12-27T18:32:35.404Z,92729.18
2017-12-27T18:35:06.497Z,92733.39
2017-12-27T18:37:36.533Z,92730.53
2017-12-27T18:40:06.536Z,92738.19
2017-12-27T18:42:35.569Z,92741.02
2017-12-27T18:45:04.603Z,92746.77
2017-12-27T18:47:36.866Z,92748.53
2017-12-27T18:50:07.050Z,92754.14
2017-12-27T18:52:36.793Z,92757.80
2017-12-27T18:55:06.123Z,92759.81
2017-12-27T18:57:35.911Z,92769.05
2017-12-27T19:00:09.452Z,92765.26
2017-12-27T19:02:40.547Z,92770.16
2017-12-27T19:05:09.624Z,92768.53
2017-12-27T19:07:41.135Z,92770.05
2017-12-27T19:10:13.740Z,92772.55
2017-12-27T19:12:47.154Z,92780.11
2017-12-27T19:15:16.741Z,92783.27
2017-12-27T19:20:21.069Z,92782.27
2017-12-27T19:22:52.519Z,92789.47
2017-12-27T19:25:21.788Z,92788.03
2017-12-27T19:27:54.049Z,92794.00
2017-12-27T19:30:23.939Z,92794.96
2017-12-27T19:32:53.213Z,92789.41
2017-12-27T19:35:22.740Z,92793.02
2017-12-27T19:37:53.682Z,92787.78
2017-12-27T19:40:22.909Z,92786.45
2017-12-27T19:42:52.915Z,92790.27
2017-12-27T19:45:21.960Z,92791.53
2017-12-27T19:47:51.109Z,92790.50
2017-12-27T19:50:20.158Z,92793.27
2017-12-27T19:52:49.215Z,92795.31
2017-12-27T19:55:18.345Z,92795.19
2017-12-27T19:57:47.394Z,92799.77
2017-12-27T20:00:16.500Z,92795.69
2017-12-27T20:02:45.537Z,92797.89
2017-12-27T20:05:15.001Z,92795.12
2017-12-27T20:07:44.026Z,92797.11
2017-12-27T20:10:13.061Z,92802.69
2017-12-27T20:12:42.144Z,92800.50
2017-12-27T20:15:11.206Z,92800.44
2017-12-27T20:17:43.383Z,92807.88
2017-12-27T20:20:13.446Z,92806.52
2017-12-27T20:22:42.483Z,92803.74
2017-12-27T20:25:11.525Z,92812.90
2017-12-27T20:27:40.690Z,92812.45
2017-12-27T20:30:12.679Z,92813.97
2017-12-27T20:32:44.645Z,92819.05
2017-12-27T20:35:13.846Z,92819.73
2017-12-27T20:37:45.395Z,92818.53
2017-12-27T20:40:17.766Z,92827.06
2017-12-27T20:42:50.974Z,92823.91
2017-12-27T20:45:20.183Z,92825.71
2017-12-27T20:47:50.116Z,92827.20
2017-12-27T20:50:19.365Z,92828.55
2017-12-27T20:52:50.690Z,92831.36
2017-12-27T20:55:20.991Z,92835.23
2017-12-27T21:00:27.787Z,92824.82
2017-12-27T21:02:58.762Z,92826.05
2017-12-27T21:05:29.802Z,92830.33
2017-12-27T21:07:59.735Z,92833.60
2017-12-27T21:10:29.073Z,92830.15
2017-12-27T21:13:07.673Z,92825.58
2017-12-27T21:15:36.837Z,92825.46
2017-12-27T21:18:05.935Z,92835.32
2017-12-27T21:20:44.343Z,92847.81
2017-12-27T21:23:15.470Z,92855.45
2017-12-27T21:25:46.546Z,92849.16
2017-12-27T21:28:18.368Z,92844.77
2017-12-27T21:30:51.164Z,92854.37
2017-12-27T21:33:20.407Z,92858.20
2017-12-27T21:35:50.547Z,92854.45
2017-12-27T21:38:19.711Z,92849.47
2017-12-27T21:40:48.885Z,92852.61
2017-12-27T21:43:17.956Z,92861.72
2017-12-27T21:45:47.049Z,92864.64
2017-12-27T21:48:21.518Z,92870.41
2017-12-27T21:50:51.561Z,92878.73
2017-12-27T21:53:20.606Z,92878.03
2017-12-27T21:55:51.935Z,92864.23
2017-12-27T21:58:26.509Z,92866.08
2017-12-27T22:01:00.959Z,92864.84
2017-12-27T22:03:30.132Z,92873.16
2017-12-27T22:05:59.182Z,92876.00
2017-12-27T22:08:28.221Z,92884.31
2017-12-27T22:10:57.335Z,92886.14
2017-12-27T22:13:26.438Z,92884.90
2017-12-27T22:15:55.475Z,92885.31
2017-12-27T22:21:07.507Z,92887.08
2017-12-27T22:23:36.549Z,92885.84
2017-12-27T22:26:05.621Z,92880.16
2017-12-27T22:28:34.657Z,92887.78
2017-12-27T22:31:08.226Z,92897.84
2017-12-27T22:33:38.207Z,92903.05
2017-12-27T22:36:07.238Z,92911.67
2017-12-27T22:38:36.287Z,92912.95
2017-12-27T22:41:07.229Z,92915.19
2017-12-27T22:43:36.289Z,92915.79
2017-12-27T22:46:05.340Z,92924.23
2017-12-27T22:48:34.410Z,92917.93
2017-12-27T22:51:04.430Z,92921.31
2017-12-27T22:53:33.449Z,92926.80
2017-12-27T22:56:02.519Z,92920.24
2017-12-27T22:58:31.567Z,92921.16
2017-12-27T23:01:00.616Z,92926.70
2017-12-27T23:03:29.646Z,92924.81
2017-12-27T23:06:01.973Z,92916.61
2017-12-27T23:08:30.980Z,92938.96
2017-12-27T23:11:04.692Z,92939.12
2017-12-27T23:13:33.720Z,92947.14
2017-12-27T23:16:02.766Z,92935.59
2017-12-27T23:18:31.796Z,92956.67
2017-12-27T23:21:04.137Z,92947.19
2017-12-27T23:23:37.921Z,92938.30
2017-12-27T23:26:09.059Z,92956.03
2017-12-27T23:28:38.114Z,92951.28
2017-12-27T23:31:09.113Z,92946.01
2017-12-27T23:33:43.025Z,92940.05
2017-12-27T23:36:13.272Z,92947.23
2017-12-27T23:38:43.644Z,92943.70
2017-12-27T23:41:12.757Z,92942.41
2017-12-27T23:43:41.879Z,92945.44
2017-12-27T23:46:10.908Z,92946.33
2017-12-27T23:48:47.292Z,92961.09
2017-12-27T23:51:16.330Z,92959.02
2017-12-27T23:53:45.362Z,92943.58
2017-12-27T23:56:19.898Z,92943.73
2017-12-27T23:58:48.906Z,92943.14
